createdAt,value
2018-12-19T00:02:18.054Z,78.25
2018-12-19T00:05:25.629Z,79.07
2018-12-19T00:08:31.979Z,76.81
2018-12-19T00:11:37.550Z,78.58
2018-12-19T00:14:43.354Z,78.34
2018-12-19T00:17:51.050Z,78.05
2018-12-19T00:20:56.678Z,77.52
2018-12-19T00:24:02.528Z,78.15
2018-12-19T00:27:08.488Z,78.10
2018-12-19T00:30:16.077Z,77.93
2018-12-19T00:33:23.700Z,77.73
2018-12-19T00:36:29.609Z,77.09
2018-12-19T00:39:35.378Z,77.01
2018-12-19T00:42:41.220Z,77.98
2018-12-19T00:45:47.464Z,78.70
2018-12-19T00:48:53.364Z,77.65
2018-12-19T00:52:00.346Z,78.02
2018-12-19T00:55:07.237Z,76.99
2018-12-19T00:58:12.852Z,76.92
2018-12-19T01:01:19.280Z,77.94
2018-12-19T01:04:25.226Z,76.59
2018-12-19T01:07:31.099Z,77.24
2018-12-19T01:10:37.827Z,77.12
2018-12-19T01:13:43.698Z,77.04
2018-12-19T01:16:49.307Z,75.42
2018-12-19T01:19:55.192Z,76.80
2018-12-19T01:23:01.168Z,76.06
2018-12-19T01:26:06.759Z,74.30
2018-12-19T01:29:12.671Z,74.14
2018-12-19T01:32:18.272Z,74.20
2018-12-19T01:35:24.164Z,75.34
2018-12-19T01:38:29.759Z,73.37
2018-12-19T01:41:35.702Z,74.02
2018-12-19T01:44:41.760Z,74.33
2018-12-19T01:47:47.559Z,74.68
2018-12-19T01:50:53.139Z,74.43
2018-12-19T01:53:59.005Z,74.08
2018-12-19T01:57:04.908Z,75.13
2018-12-19T02:00:11.312Z,75.66
2018-12-19T02:03:16.879Z,75.32
2018-12-19T02:06:22.980Z,73.77
2018-12-19T02:09:29.078Z,76.37
2018-12-19T02:12:35.945Z,76.50
2018-12-19T02:15:41.905Z,77.22
2018-12-19T02:18:48.295Z,75.92
2018-12-19T02:21:53.872Z,76.39
2018-12-19T02:24:59.506Z,76.38
2018-12-19T02:28:05.304Z,76.94
2018-12-19T02:31:10.945Z,75.88
2018-12-19T02:34:17.169Z,79.43
2018-12-19T02:37:23.116Z,78.58
2018-12-19T02:40:29.333Z,79.43
2018-12-19T02:43:37.990Z,79.80
2018-12-19T02:46:45.777Z,81.23
2018-12-19T02:49:53.151Z,80.39
2018-12-19T02:52:59.152Z,79.94
2018-12-19T02:56:05.052Z,78.16
2018-12-19T02:59:10.892Z,77.81
2018-12-19T03:02:16.524Z,76.93
2018-12-19T03:05:22.396Z,75.75
2018-12-19T03:08:28.019Z,76.08
2018-12-19T03:11:34.055Z,76.02
2018-12-19T03:14:40.120Z,76.59
2018-12-19T03:17:47.746Z,76.17
2018-12-19T03:20:53.664Z,74.98
2018-12-19T03:23:59.548Z,75.92
2018-12-19T03:27:06.404Z,75.84
2018-12-19T03:30:12.266Z,74.69
2018-12-19T03:33:18.276Z,75.23
2018-12-19T03:36:23.972Z,75.41
2018-12-19T03:39:36.219Z,75.99
2018-12-19T03:42:42.117Z,76.00
2018-12-19T03:45:48.420Z,75.00
2018-12-19T03:49:19.701Z,74.66
2018-12-19T03:52:31.752Z,74.86
2018-12-19T03:55:37.523Z,74.30
2018-12-19T03:58:43.250Z,73.40
2018-12-19T04:01:48.995Z,73.26
2018-12-19T04:04:54.589Z,73.42
2018-12-19T04:08:00.215Z,73.65
2018-12-19T04:11:06.106Z,73.87
2018-12-19T04:14:11.687Z,73.73
2018-12-19T04:17:18.287Z,73.17
2018-12-19T04:20:24.225Z,73.96
2018-12-19T04:23:30.118Z,72.48
2018-12-19T04:26:35.973Z,73.19
2018-12-19T04:29:42.308Z,73.75
2018-12-19T04:32:49.081Z,72.93
2018-12-19T04:35:55.340Z,72.17
2018-12-19T04:39:00.978Z,71.54
2018-12-19T04:42:06.742Z,71.85
2018-12-19T04:45:12.314Z,71.91
2018-12-19T04:48:18.192Z,71.13
2018-12-19T04:51:23.746Z,71.47
2018-12-19T04:54:29.639Z,69.74
2018-12-19T04:57:35.499Z,71.76
2018-12-19T05:00:41.264Z,71.67
2018-12-19T05:03:47.921Z,70.43
2018-12-19T05:06:59.329Z,70.46
2018-12-19T05:10:12.167Z,72.63
2018-12-19T05:13:13.791Z,71.88
2018-12-19T05:16:19.677Z,71.05
2018-12-19T05:19:32.796Z,71.36
2018-12-19T05:22:38.754Z,74.54
2018-12-19T05:25:44.467Z,74.71
2018-12-19T05:28:50.206Z,73.34
2018-12-19T05:31:55.999Z,74.69
2018-12-19T05:35:01.575Z,74.91
2018-12-19T05:38:07.459Z,75.25
2018-12-19T05:41:13.376Z,74.73
2018-12-19T05:44:19.201Z,72.24
2018-12-19T05:47:25.348Z,75.67
2018-12-19T05:50:31.792Z,75.69
2018-12-19T05:53:37.672Z,75.10
2018-12-19T05:56:44.056Z,75.20
2018-12-19T05:59:49.697Z,75.60
2018-12-19T06:02:55.597Z,75.18
2018-12-19T06:06:01.638Z,75.79
2018-12-19T06:09:09.043Z,75.03
2018-12-19T06:12:15.089Z,75.36
2018-12-19T06:15:20.724Z,74.94
2018-12-19T06:18:26.621Z,74.14
2018-12-19T06:21:32.788Z,74.08
2018-12-19T06:24:38.765Z,74.09
2018-12-19T06:27:44.874Z,74.01
2018-12-19T06:30:50.432Z,73.99
2018-12-19T06:33:56.967Z,72.03
2018-12-19T06:37:02.867Z,70.74
2018-12-19T06:40:10.044Z,72.51
2018-12-19T06:43:15.627Z,71.44
2018-12-19T06:46:21.379Z,72.28
2018-12-19T06:49:26.968Z,72.61
2018-12-19T06:52:35.817Z,72.14
2018-12-19T06:55:41.649Z,72.64
2018-12-19T06:58:47.647Z,72.00
2018-12-19T07:01:53.233Z,72.56
2018-12-19T07:04:58.870Z,72.48
2018-12-19T07:08:04.728Z,72.58
2018-12-19T07:11:10.338Z,73.02
2018-12-19T07:14:16.286Z,71.97
2018-12-19T07:17:21.921Z,71.14
2018-12-19T07:20:27.793Z,71.86
2018-12-19T07:23:34.120Z,72.63
2018-12-19T07:26:40.012Z,73.52
2018-12-19T07:29:46.147Z,72.36
2018-12-19T07:32:52.013Z,71.19
2018-12-19T07:35:57.892Z,71.10
2018-12-19T07:39:05.539Z,71.36
2018-12-19T07:42:11.412Z,71.55
2018-12-19T07:45:17.282Z,72.67
2018-12-19T07:48:23.559Z,72.68
2018-12-19T07:51:29.484Z,71.31
2018-12-19T07:54:35.397Z,72.12
2018-12-19T07:57:41.253Z,72.11
2018-12-19T08:00:47.561Z,72.86
2018-12-19T08:03:53.432Z,71.40
2018-12-19T08:06:59.325Z,71.93
2018-12-19T08:10:07.429Z,72.44
2018-12-19T08:13:13.131Z,72.33
2018-12-19T08:16:18.988Z,72.43
2018-12-19T08:19:24.917Z,72.41
2018-12-19T08:22:30.498Z,72.52
2018-12-19T08:25:36.593Z,71.80
2018-12-19T08:28:42.911Z,72.40
2018-12-19T08:31:51.680Z,73.45
2018-12-19T08:34:57.635Z,71.71
2018-12-19T08:38:03.537Z,71.41
2018-12-19T08:41:09.200Z,71.91
2018-12-19T08:44:15.105Z,72.58
2018-12-19T08:47:20.733Z,71.99
2018-12-19T08:50:26.634Z,71.26
2018-12-19T08:53:32.271Z,71.36
2018-12-19T08:56:38.262Z,70.36
2018-12-19T08:59:43.848Z,70.91
2018-12-19T09:02:49.755Z,70.57
2018-12-19T09:05:55.618Z,68.92
2018-12-19T09:09:01.496Z,67.09
2018-12-19T09:12:08.235Z,67.01
2018-12-19T09:15:16.139Z,67.15
2018-12-19T09:18:23.485Z,68.46
2018-12-19T09:21:29.373Z,69.39
2018-12-19T09:24:35.665Z,70.03
2018-12-19T09:27:41.619Z,70.25
2018-12-19T09:30:47.823Z,69.41
2018-12-19T09:33:53.809Z,68.43
2018-12-19T09:37:00.144Z,68.41
2018-12-19T09:40:07.025Z,67.99
2018-12-19T09:43:13.857Z,66.88
2018-12-19T09:46:19.754Z,68.61
2018-12-19T09:49:32.343Z,67.79
2018-12-19T09:52:38.243Z,68.59
2018-12-19T09:55:44.099Z,68.40
2018-12-19T09:58:50.011Z,69.23
2018-12-19T10:01:56.957Z,68.36
2018-12-19T10:05:02.609Z,68.11
2018-12-19T10:08:08.477Z,68.01
2018-12-19T10:11:18.743Z,68.07
2018-12-19T10:14:22.702Z,66.96
2018-12-19T10:17:29.310Z,66.65
2018-12-19T10:20:34.895Z,67.08
2018-12-19T10:23:43.399Z,67.80
2018-12-19T10:26:49.563Z,69.01
2018-12-19T10:29:56.458Z,68.42
2018-12-19T10:33:02.064Z,68.80
2018-12-19T10:36:08.007Z,67.25
2018-12-19T10:39:17.664Z,67.55
2018-12-19T10:42:23.995Z,66.54
2018-12-19T10:45:29.978Z,67.58
2018-12-19T10:48:36.245Z,68.53
2018-12-19T10:51:41.857Z,68.17
2018-12-19T10:54:48.226Z,69.35
2018-12-19T10:57:54.109Z,68.80
2018-12-19T11:01:01.827Z,68.90
2018-12-19T11:04:07.469Z,70.00
2018-12-19T11:07:13.515Z,68.75
2018-12-19T11:10:19.110Z,68.87
2018-12-19T11:13:24.728Z,68.20
2018-12-19T11:16:30.752Z,68.47
2018-12-19T11:19:36.665Z,68.87
2018-12-19T11:22:42.271Z,69.12
2018-12-19T11:25:48.818Z,68.76
2018-12-19T11:28:54.768Z,68.89
2018-12-19T11:32:01.418Z,67.87
2018-12-19T11:35:08.228Z,69.71
2018-12-19T11:38:13.872Z,70.26
2018-12-19T11:41:19.759Z,71.63
2018-12-19T11:44:25.408Z,71.42
2018-12-19T11:47:31.481Z,71.75
2018-12-19T11:50:37.574Z,71.64
2018-12-19T11:53:43.481Z,71.60
2018-12-19T11:56:49.467Z,71.74
2018-12-19T11:59:55.365Z,72.96
2018-12-19T12:03:01.279Z,71.81
2018-12-19T12:06:07.619Z,72.48
2018-12-19T12:09:13.556Z,71.97
2018-12-19T12:12:19.192Z,71.74
2018-12-19T12:15:25.119Z,71.27
2018-12-19T12:18:30.719Z,72.56
2018-12-19T12:21:36.713Z,72.74
2018-12-19T12:24:42.631Z,72.36
2018-12-19T12:27:48.795Z,72.83
2018-12-19T12:30:54.399Z,72.20
2018-12-19T12:34:01.151Z,72.70
2018-12-19T12:37:07.018Z,72.93
2018-12-19T12:40:13.442Z,74.97
2018-12-19T12:43:20.390Z,74.79
2018-12-19T12:46:26.480Z,76.51
2018-12-19T12:49:32.385Z,78.11
2018-12-19T12:52:38.767Z,78.62
2018-12-19T12:55:44.720Z,79.46
2018-12-19T12:58:50.663Z,81.26
2018-12-19T13:01:56.532Z,81.18
2018-12-19T13:05:02.948Z,82.65
2018-12-19T13:08:08.554Z,82.69
2018-12-19T13:11:14.920Z,83.61
2018-12-19T13:14:21.392Z,84.62
2018-12-19T13:17:27.454Z,85.20
2018-12-19T13:20:33.059Z,85.25
2018-12-19T13:23:38.684Z,86.11
2018-12-19T13:26:45.241Z,86.32
2018-12-19T13:29:51.134Z,87.05
2018-12-19T13:32:57.027Z,86.87
2018-12-19T13:36:03.662Z,86.99
2018-12-19T13:39:10.079Z,87.72
2018-12-19T13:42:15.777Z,87.94
2018-12-19T13:45:21.453Z,87.85
2018-12-19T13:48:27.350Z,87.91
2018-12-19T13:51:33.216Z,88.14
2018-12-19T13:54:38.858Z,89.65
2018-12-19T13:57:44.807Z,89.06
2018-12-19T14:00:50.889Z,90.03
2018-12-19T14:03:57.091Z,90.05
2018-12-19T14:07:03.320Z,89.95
2018-12-19T14:10:09.875Z,90.24
2018-12-19T14:13:16.039Z,90.39
2018-12-19T14:16:21.666Z,89.58
2018-12-19T14:19:27.750Z,90.51
2018-12-19T14:22:33.764Z,89.85
2018-12-19T14:25:39.393Z,90.38
2018-12-19T14:28:45.862Z,89.90
2018-12-19T14:31:51.976Z,90.15
2018-12-19T14:34:57.695Z,90.85
2018-12-19T14:38:03.820Z,90.41
2018-12-19T14:41:09.776Z,90.48
2018-12-19T14:44:15.626Z,90.98
2018-12-19T14:47:21.362Z,91.13
2018-12-19T14:50:26.974Z,90.72
2018-12-19T14:53:32.582Z,90.66
2018-12-19T14:56:38.589Z,91.85
2018-12-19T14:59:44.348Z,92.00
2018-12-19T15:02:50.288Z,92.50
2018-12-19T15:05:55.974Z,92.69
2018-12-19T15:09:02.343Z,91.94
2018-12-19T15:12:08.289Z,92.14
2018-12-19T15:15:14.692Z,92.16
2018-12-19T15:18:20.285Z,92.38
2018-12-19T15:21:26.359Z,92.52
2018-12-19T15:24:31.944Z,92.91
2018-12-19T15:27:37.673Z,93.29
2018-12-19T15:30:43.620Z,93.18
2018-12-19T15:33:49.556Z,92.81
2018-12-19T15:36:56.213Z,93.23
2018-12-19T15:40:02.254Z,93.54
2018-12-19T15:43:07.946Z,93.38
2018-12-19T15:46:13.631Z,92.53
2018-12-19T15:49:19.691Z,93.35
2018-12-19T15:52:25.755Z,92.18
2018-12-19T15:55:31.630Z,92.97
2018-12-19T15:58:37.636Z,93.00
2018-12-19T16:01:43.516Z,92.98
2018-12-19T16:04:49.728Z,92.81
2018-12-19T16:07:55.739Z,92.79
2018-12-19T16:11:01.483Z,92.52
2018-12-19T16:14:07.104Z,92.86
2018-12-19T16:17:13.015Z,92.66
2018-12-19T16:20:18.612Z,92.86
2018-12-19T16:23:31.679Z,93.51
2018-12-19T16:26:38.377Z,93.70
2018-12-19T16:29:43.993Z,93.67
2018-12-19T16:32:49.987Z,93.42
2018-12-19T16:35:57.001Z,93.39
2018-12-19T16:39:02.889Z,93.45
2018-12-19T16:42:09.849Z,93.02
2018-12-19T16:45:16.024Z,93.29
2018-12-19T16:48:23.037Z,93.29
2018-12-19T16:51:28.931Z,94.03
2018-12-19T16:54:35.015Z,94.17
2018-12-19T16:57:40.595Z,94.25
2018-12-19T17:00:47.145Z,93.87
2018-12-19T17:03:54.198Z,94.29
2018-12-19T17:07:00.553Z,94.37
2018-12-19T17:10:08.769Z,93.45
2018-12-19T17:13:14.741Z,93.68
2018-12-19T17:16:20.644Z,93.45
2018-12-19T17:19:26.264Z,92.05
2018-12-19T17:22:32.048Z,92.76
2018-12-19T17:25:38.423Z,92.77
2018-12-19T17:28:45.830Z,92.93
2018-12-19T17:31:51.736Z,92.79
2018-12-19T17:34:57.619Z,93.97
2018-12-19T17:38:04.871Z,93.36
2018-12-19T17:41:11.318Z,93.32
2018-12-19T17:44:17.426Z,93.26
2018-12-19T17:47:23.043Z,93.56
2018-12-19T17:50:28.716Z,92.96
2018-12-19T17:53:34.695Z,92.93
2018-12-19T17:56:40.658Z,92.58
2018-12-19T17:59:48.210Z,92.41
2018-12-19T18:02:54.189Z,93.05
2018-12-19T18:05:59.988Z,93.22
2018-12-19T18:09:08.699Z,94.29
2018-12-19T18:12:14.719Z,92.66
2018-12-19T18:15:20.548Z,93.23
2018-12-19T18:18:26.538Z,93.92
2018-12-19T18:21:34.371Z,93.69
2018-12-19T18:24:41.700Z,92.83
2018-12-19T18:27:48.831Z,91.90
2018-12-19T18:30:54.632Z,92.39
2018-12-19T18:34:00.684Z,92.52
2018-12-19T18:37:06.613Z,92.52
2018-12-19T18:40:12.521Z,92.00
2018-12-19T18:43:18.711Z,92.22
2018-12-19T18:46:25.785Z,91.69
2018-12-19T18:49:32.473Z,92.24
2018-12-19T18:52:39.838Z,91.36
2018-12-19T18:55:46.251Z,90.29
2018-12-19T18:58:52.675Z,90.87
2018-12-19T19:02:00.239Z,90.64
2018-12-19T19:05:07.365Z,91.33
2018-12-19T19:08:13.748Z,90.55
2018-12-19T19:11:20.124Z,91.30
2018-12-19T19:14:26.054Z,91.06
2018-12-19T19:17:31.958Z,91.43
2018-12-19T19:20:38.278Z,92.38
2018-12-19T19:23:43.910Z,91.94
2018-12-19T19:26:50.201Z,91.78
2018-12-19T19:29:56.177Z,91.96
2018-12-19T19:33:02.070Z,92.22
2018-12-19T19:36:09.652Z,93.13
2018-12-19T19:39:15.536Z,93.79
2018-12-19T19:42:21.128Z,91.07
2018-12-19T19:45:27.144Z,91.02
2018-12-19T19:48:33.455Z,91.33
2018-12-19T19:51:39.741Z,91.06
2018-12-19T19:54:45.692Z,91.42
2018-12-19T19:57:51.313Z,92.07
2018-12-19T20:00:57.376Z,91.61
2018-12-19T20:04:03.222Z,92.73
2018-12-19T20:07:09.225Z,93.23
2018-12-19T20:10:15.440Z,93.46
2018-12-19T20:13:21.843Z,93.26
2018-12-19T20:16:27.497Z,93.47
2018-12-19T20:19:33.920Z,93.23
2018-12-19T20:22:39.821Z,93.64
2018-12-19T20:25:45.729Z,93.68
2018-12-19T20:28:51.660Z,93.42
2018-12-19T20:31:58.120Z,93.77
2018-12-19T20:35:04.920Z,94.17
2018-12-19T20:38:10.519Z,93.74
2018-12-19T20:41:16.135Z,93.66
2018-12-19T20:44:22.155Z,93.92
2018-12-19T20:47:27.736Z,93.20
2018-12-19T20:50:33.868Z,93.49
2018-12-19T20:53:41.175Z,93.31
2018-12-19T20:56:47.163Z,93.82
2018-12-19T20:59:53.135Z,93.35
2018-12-19T21:02:59.240Z,93.09
2018-12-19T21:06:05.210Z,93.62
2018-12-19T21:09:12.307Z,93.79
2018-12-19T21:12:20.144Z,93.58
2018-12-19T21:15:26.225Z,93.50
2018-12-19T21:18:37.454Z,93.70
2018-12-19T21:21:43.628Z,92.91
2018-12-19T21:24:49.608Z,93.16
2018-12-19T21:27:55.945Z,93.77
2018-12-19T21:31:01.828Z,93.43
2018-12-19T21:34:07.854Z,93.33
2018-12-19T21:37:13.817Z,93.46
2018-12-19T21:40:20.077Z,93.19
2018-12-19T21:43:25.749Z,92.98
2018-12-19T21:46:31.383Z,93.34
2018-12-19T21:49:37.215Z,93.11
2018-12-19T21:52:43.392Z,93.58
2018-12-19T21:55:49.424Z,93.52
2018-12-19T21:58:55.858Z,93.48
2018-12-19T22:02:01.450Z,93.68
2018-12-19T22:05:08.099Z,93.64
2018-12-19T22:08:16.040Z,94.04
2018-12-19T22:11:22.389Z,94.94
2018-12-19T22:14:28.892Z,94.63
2018-12-19T22:17:39.679Z,94.48
2018-12-19T22:20:46.821Z,94.85
2018-12-19T22:23:52.743Z,96.01
2018-12-19T22:26:58.665Z,95.37
2018-12-19T22:30:07.341Z,96.05
2018-12-19T22:33:13.305Z,94.50
2018-12-19T22:36:19.183Z,94.78
2018-12-19T22:39:25.139Z,94.80
2018-12-19T22:42:30.940Z,94.08
2018-12-19T22:45:43.098Z,94.10
2018-12-19T22:49:16.096Z,94.05
2018-12-19T22:52:22.074Z,93.46
2018-12-19T22:55:28.619Z,94.16
2018-12-19T22:58:34.655Z,93.67
2018-12-19T23:01:45.554Z,93.66
2018-12-19T23:04:51.344Z,94.36
2018-12-19T23:07:57.096Z,94.61
2018-12-19T23:11:02.981Z,94.86
2018-12-19T23:14:15.151Z,95.34
2018-12-19T23:17:27.197Z,94.90
2018-12-19T23:20:38.642Z,94.91
2018-12-19T23:23:50.907Z,95.38
2018-12-19T23:26:59.369Z,94.12
2018-12-19T23:30:08.967Z,95.15
2018-12-19T23:33:15.437Z,94.93
2018-12-19T23:36:23.167Z,94.33
2018-12-19T23:39:29.435Z,93.96
2018-12-19T23:42:35.345Z,95.04
2018-12-19T23:45:41.288Z,94.37
2018-12-19T23:48:47.700Z,94.64
2018-12-19T23:51:53.353Z,95.31
2018-12-19T23:54:59.649Z,94.11
